Time;durP1;ratioP1;P1;durP2;ratioP2;P2;SDS_P1;SDS_P2;PMS_P1;PMS_P2;Temp;Humidity;BMP_temperature;BMP_pressure;BME280_temperature;BME280_humidity;BME280_pressure;Samples;Min_cycle;Max_cycle;Signal;HPM_P1;HPM_P2
2021/10/01 00:01:38;;;;;;;5.77;1.73;;;;;;;11.06;75.83;101913.94;5052493;28;20262;-35
2021/10/01 00:04:04;;;;;;;5.10;1.37;;;;;;;10.99;75.57;101907.69;5052717;28;20025;-35
2021/10/01 00:06:29;;;;;;;4.75;1.60;;;;;;;11.04;75.19;101916.03;5052785;28;20032;-35
2021/10/01 00:08:55;;;;;;;3.97;1.30;;;;;;;11.01;75.70;101913.72;5052785;28;20534;-35
2021/10/01 00:11:21;;;;;;;6.87;1.83;;;;;;;11.01;75.75;101911.00;5055799;28;20047;-35
2021/10/01 00:13:48;;;;;;;7.10;1.50;;;;;;;10.91;75.84;101896.22;5056744;28;20032;-35
2021/10/01 00:16:14;;;;;;;6.28;1.15;;;;;;;10.95;76.77;101906.44;5056831;28;20021;-35
2021/10/01 00:18:39;;;;;;;5.28;1.10;;;;;;;10.91;76.01;101905.19;5055664;28;20341;-35
2021/10/01 00:21:05;;;;;;;6.37;1.60;;;;;;;10.92;76.16;101898.72;5057012;28;20021;-35
2021/10/01 00:23:30;;;;;;;5.00;1.27;;;;;;;10.91;76.09;101901.66;5057523;28;20548;-35
2021/10/01 00:25:56;;;;;;;5.83;1.33;;;;;;;10.92;75.94;101897.88;5056753;28;20103;-35
2021/10/01 00:28:22;;;;;;;9.35;2.25;;;;;;;10.82;76.18;101888.31;5056443;28;20046;-35
2021/10/01 00:30:48;;;;;;;5.95;1.30;;;;;;;10.86;76.49;101891.44;5056680;28;20025;-35
2021/10/01 00:33:13;;;;;;;6.15;1.67;;;;;;;10.77;76.28;101877.28;5056729;28;20028;-35
2021/10/01 00:35:38;;;;;;;4.77;1.20;;;;;;;10.79;76.06;101879.78;5056451;28;20110;-35
2021/10/01 00:38:04;;;;;;;5.80;1.50;;;;;;;10.84;76.13;101882.72;5056891;28;20251;-35
2021/10/01 00:40:29;;;;;;;4.87;1.13;;;;;;;10.86;76.02;101896.03;5056314;28;20051;-35
2021/10/01 00:42:55;;;;;;;6.97;1.27;;;;;;;10.82;75.82;101880.19;5056752;28;20017;-35
2021/10/01 00:45:20;;;;;;;6.18;1.50;;;;;;;10.82;76.22;101873.94;5056133;28;20056;-35
2021/10/01 00:47:45;;;;;;;5.40;1.73;;;;;;;10.86;75.91;101866.25;5056671;28;20123;-35
2021/10/01 00:50:11;;;;;;;3.93;1.50;;;;;;;10.81;76.51;101869.59;5055862;28;20021;-35
2021/10/01 00:52:37;;;;;;;5.63;1.73;;;;;;;10.80;76.47;101846.28;5056317;28;20465;-35
2021/10/01 00:55:03;;;;;;;10.40;2.03;;;;;;;10.87;76.00;101859.78;5056037;28;20418;-35
2021/10/01 00:57:28;;;;;;;;;;;;;;;10.93;76.13;101859.81;5056361;28;20457;-35
2021/10/01 00:59:54;;;;;;;5.05;1.38;;;;;;;10.97;75.83;101866.44;5055665;28;19904;-35
2021/10/01 01:02:20;;;;;;;4.43;1.45;;;;;;;10.95;75.90;101868.53;5056452;28;20032;-35
2021/10/01 01:04:46;;;;;;;8.03;1.27;;;;;;;10.94;75.96;101861.47;5055557;28;20025;-35
2021/10/01 01:07:18;;;;;;;;;;;;;;;11.02;75.86;101855.00;5056286;28;20248;-35
2021/10/01 01:09:56;;;;;;;3.97;1.30;;;;;;;11.01;75.58;101862.28;5055636;28;19911;-35
2021/10/01 01:12:50;;;;;;;4.75;1.25;;;;;;;11.03;76.07;101846.69;5056024;28;20025;-35
2021/10/01 01:15:28;;;;;;;4.47;1.52;;;;;;;11.02;76.19;101852.28;5055836;28;20102;-35
2021/10/01 01:18:07;;;;;;;7.80;1.88;;;;;;;11.04;75.56;101856.47;5055344;28;20492;-35
2021/10/01 01:20:45;;;;;;;6.45;1.52;;;;;;;11.03;75.65;101848.56;5056267;28;20182;-35
2021/10/01 01:23:38;;;;;;;6.07;1.45;;;;;;;11.04;75.77;101856.47;5056260;28;20050;-35
2021/10/01 01:26:31;;;;;;;4.15;1.20;;;;;;;11.04;75.60;101853.75;5055561;28;20186;-35
2021/10/01 01:29:08;;;;;;;5.00;1.50;;;;;;;11.00;75.35;101843.56;5055729;28;20028;-35
2021/10/01 01:31:40;;;;;;;2.00;1.00;;;;;;;10.99;75.98;101834.63;5055608;28;20043;-35
2021/10/01 01:34:06;;;;;;;6.47;1.27;;;;;;;10.99;75.32;101825.66;5056079;28;20060;-35
2021/10/01 01:36:33;;;;;;;4.15;1.23;;;;;;;11.02;75.36;101826.06;5055748;28;20029;-35
2021/10/01 01:39:01;;;;;;;5.35;1.08;;;;;;;11.02;75.83;101827.94;5055175;28;20361;-36
2021/10/01 01:41:30;;;;;;;4.90;1.30;;;;;;;11.03;75.44;101818.78;5055253;28;20041;-35
2021/10/01 01:43:57;;;;;;;3.70;1.00;;;;;;;10.99;75.83;101825.66;5055026;28;20526;-35
2021/10/01 01:46:23;;;;;;;4.40;1.17;;;;;;;10.98;75.47;101815.84;5055131;28;20021;-35
2021/10/01 01:48:50;;;;;;;4.70;1.10;;;;;;;10.91;75.68;101806.94;5053862;28;20040;-35
2021/10/01 01:51:17;;;;;;;3.00;1.05;;;;;;;10.92;75.30;101809.41;5055733;28;20079;-35
2021/10/01 01:53:43;;;;;;;3.65;1.25;;;;;;;10.99;75.53;101820.25;5054935;28;20029;-35
2021/10/01 01:56:10;;;;;;;5.25;1.25;;;;;;;10.98;75.65;101808.59;5054893;28;20052;-35
2021/10/01 01:58:37;;;;;;;6.07;1.20;;;;;;;10.99;75.50;101810.25;5055056;28;20028;-35
2021/10/01 02:01:05;;;;;;;6.93;1.27;;;;;;;11.01;75.54;101813.56;5055631;28;20060;-35
2021/10/01 02:03:33;;;;;;;6.63;1.55;;;;;;;10.93;75.42;101788.59;5055340;28;20036;-35
2021/10/01 02:06:00;;;;;;;2.80;1.25;;;;;;;10.92;75.59;101795.06;5054698;28;20103;-36
2021/10/01 02:08:27;;;;;;;5.90;1.63;;;;;;;10.95;75.46;101803.59;5054682;28;20044;-35
2021/10/01 02:10:53;;;;;;;4.93;1.52;;;;;;;10.92;75.91;101785.06;5054746;28;20338;-35
2021/10/01 02:13:19;;;;;;;;;;;;;;;11.04;75.84;101802.34;5054945;28;20047;-35
2021/10/01 02:15:46;;;;;;;3.58;1.45;;;;;;;10.97;76.09;101801.50;5054276;28;20392;-35
2021/10/01 02:18:12;;;;;;;5.43;0.98;;;;;;;10.95;75.91;101795.47;5054877;28;20013;-35
2021/10/01 02:20:40;;;;;;;10.25;1.20;;;;;;;10.85;76.37;101786.97;5052732;28;20029;-35
2021/10/01 02:23:06;;;;;;;4.22;1.13;;;;;;;10.95;76.02;101800.06;5054352;28;20072;-35
2021/10/01 02:28:33;;;;;;;3.22;1.10;;;;;;;10.90;75.77;101792.56;5054787;28;20124;-35
2021/10/01 02:31:00;;;;;;;2.97;1.10;;;;;;;10.91;75.92;101790.69;5054962;28;20310;-35
2021/10/01 02:33:39;;;;;;;6.13;1.30;;;;;;;10.88;75.82;101774.88;5053818;28;20028;-35
2021/10/01 02:36:04;;;;;;;8.55;1.65;;;;;;;10.86;76.57;101775.09;5054149;28;20049;-35
2021/10/01 02:38:30;;;;;;;6.20;1.20;;;;;;;10.83;75.97;101778.19;5054841;28;20063;-35
2021/10/01 02:40:55;;;;;;;4.22;1.15;;;;;;;10.81;76.34;101766.78;5054226;28;20029;-35
2021/10/01 02:43:21;;;;;;;5.32;1.20;;;;;;;10.76;76.70;101755.75;5054474;28;20413;-35
2021/10/01 02:45:46;;;;;;;4.43;1.47;;;;;;;10.82;76.28;101763.00;5053851;28;20021;-35
2021/10/01 02:48:11;;;;;;;6.93;1.33;;;;;;;10.76;76.32;101739.50;5054687;28;20027;-35
2021/10/01 02:50:40;;;;;;;5.47;1.10;;;;;;;10.69;75.81;101730.59;5053530;28;20384;-35
2021/10/01 02:53:16;;;;;;;4.25;0.95;;;;;;;10.83;76.36;101740.31;5053880;28;20031;-36
2021/10/01 02:55:54;;;;;;;2.45;1.17;;;;;;;10.75;76.01;101727.03;5053761;28;20029;-35
2021/10/01 02:58:24;;;;;;;5.05;1.23;;;;;;;10.82;76.41;101735.97;5054031;28;20017;-35
2021/10/01 03:00:51;;;;;;;6.47;1.48;;;;;;;10.70;75.91;101716.00;5054217;28;20379;-35
2021/10/01 03:03:21;;;;;;;2.22;1.17;;;;;;;10.80;76.18;101732.66;5053591;28;20044;-35
2021/10/01 03:05:49;;;;;;;4.80;1.15;;;;;;;10.81;75.99;101731.59;5054088;28;20396;-35
2021/10/01 03:08:16;;;;;;;3.72;1.05;;;;;;;10.78;76.09;101726.59;5053868;28;20074;-35
2021/10/01 03:10:43;;;;;;;4.78;1.10;;;;;;;10.84;75.87;101736.59;5053223;28;20035;-35
2021/10/01 03:13:09;;;;;;;4.85;1.30;;;;;;;10.85;75.67;101730.13;5053926;28;20025;-35
2021/10/01 03:15:36;;;;;;;4.97;1.60;;;;;;;10.82;75.83;101725.13;5053794;28;20057;-35
2021/10/01 03:18:02;;;;;;;5.70;1.25;;;;;;;10.85;75.98;101722.03;5053859;28;20031;-35
2021/10/01 03:20:27;;;;;;;2.53;1.00;;;;;;;10.86;75.93;101720.97;5053632;28;20021;-35
2021/10/01 03:22:53;;;;;;;6.53;1.73;;;;;;;10.86;75.61;101714.72;5054020;28;20124;-35
2021/10/01 03:25:19;;;;;;;;;;;;;;;10.89;75.66;101720.56;5054392;28;20384;-35
2021/10/01 03:27:45;;;;;;;3.47;1.30;;;;;;;10.77;76.21;101692.47;5053579;28;19915;-35
2021/10/01 03:30:11;;;;;;;5.70;1.30;;;;;;;10.74;76.01;101701.03;5052805;28;20095;-35
2021/10/01 03:32:37;;;;;;;3.92;1.00;;;;;;;10.73;76.22;101708.28;5053392;28;20437;-35
2021/10/01 03:35:05;;;;;;;4.90;1.35;;;;;;;10.69;76.79;101700.84;5053139;28;20112;-35
2021/10/01 03:37:31;;;;;;;4.35;1.30;;;;;;;10.72;76.01;101692.28;5053904;28;20153;-35
2021/10/01 03:39:59;;;;;;;5.30;1.33;;;;;;;10.75;76.06;101705.41;5052696;28;20028;-35
2021/10/01 03:42:25;;;;;;;4.72;1.00;;;;;;;10.73;75.84;101683.94;5053284;28;20021;-35
2021/10/01 03:44:51;;;;;;;5.10;1.27;;;;;;;10.64;75.64;101658.19;5050607;28;20078;-35
2021/10/01 03:47:16;;;;;;;5.38;1.55;;;;;;;10.85;75.43;101686.84;5068663;28;20037;-35
2021/10/01 03:49:42;;;;;;;4.50;1.27;;;;;;;10.89;75.12;101679.97;5053072;28;20158;-35
2021/10/01 03:52:11;;;;;;;6.20;1.63;;;;;;;10.78;75.32;101658.97;5053318;28;20355;-35
2021/10/01 03:54:38;;;;;;;5.03;1.13;;;;;;;10.90;75.11;101680.81;5053098;28;20423;-35
2021/10/01 03:57:03;;;;;;;5.28;1.25;;;;;;;10.80;75.08;101646.91;5068406;28;20017;-35
2021/10/01 03:59:29;;;;;;;4.30;1.23;;;;;;;10.88;74.97;101658.50;5052522;28;20017;-35
2021/10/01 04:01:54;;;;;;;6.63;1.30;;;;;;;10.86;74.70;101645.22;5052142;28;20033;-35
2021/10/01 04:04:20;;;;;;;5.33;1.80;;;;;;;10.89;74.87;101655.63;5052753;28;20025;-35
2021/10/01 04:06:45;;;;;;;11.30;1.87;;;;;;;10.81;74.45;101634.19;5052795;28;20646;-35
2021/10/01 04:09:11;;;;;;;1.90;0.87;;;;;;;10.85;74.35;101645.44;5052724;28;20355;-35
2021/10/01 04:11:38;;;;;;;6.65;1.40;;;;;;;10.82;74.44;101625.03;5052722;28;20056;-35
2021/10/01 04:14:04;;;;;;;4.18;1.10;;;;;;;10.72;74.45;101619.25;5068532;28;20040;-35
2021/10/01 04:16:29;;;;;;;4.50;1.30;;;;;;;10.70;74.37;101615.94;5052754;28;20028;-35
2021/10/01 04:18:55;;;;;;;4.23;1.10;;;;;;;10.68;74.65;101613.41;5052421;28;20458;-35
2021/10/01 04:21:20;;;;;;;7.00;1.40;;;;;;;10.61;74.33;101611.78;5052797;28;20025;-35
2021/10/01 04:23:45;;;;;;;4.33;1.50;;;;;;;10.66;74.94;101610.09;5052237;28;20091;-35
2021/10/01 04:26:10;;;;;;;5.80;1.07;;;;;;;10.73;74.25;101637.13;5052743;28;20072;-35
2021/10/01 04:28:36;;;;;;;4.60;1.33;;;;;;;10.65;74.36;101613.03;5052350;28;20061;-34
2021/10/01 04:31:01;;;;;;;3.57;1.20;;;;;;;10.71;74.08;101631.09;5052928;28;20485;-35
2021/10/01 04:33:28;;;;;;;5.55;1.30;;;;;;;10.73;74.60;101631.72;5051775;28;20024;-35
2021/10/01 04:35:54;;;;;;;4.68;1.17;;;;;;;10.73;74.11;101629.84;5052937;28;20138;-35
2021/10/01 04:38:20;;;;;;;4.78;1.30;;;;;;;10.74;73.56;101636.94;5052543;28;20394;-34
2021/10/01 04:40:46;;;;;;;5.82;1.25;;;;;;;10.72;73.95;101633.59;5052357;28;20425;-35
2021/10/01 04:43:11;;;;;;;5.00;1.43;;;;;;;10.74;73.37;101636.94;5052718;28;20025;-35
2021/10/01 04:45:37;;;;;;;5.50;1.33;;;;;;;10.72;74.03;101621.94;5052360;28;20187;-35
2021/10/01 04:48:04;;;;;;;5.45;1.30;;;;;;;10.71;73.37;101617.59;5052888;28;20020;-34
2021/10/01 04:50:30;;;;;;;8.50;1.75;;;;;;;10.73;73.34;101615.47;5052289;28;20090;-34
2021/10/01 04:52:56;;;;;;;;;;;;;;;10.78;73.45;101619.25;5052582;28;20112;-35
2021/10/01 04:55:21;;;;;;;3.70;1.17;;;;;;;10.76;73.02;101615.06;5052169;28;20349;-35
2021/10/01 04:57:46;;;;;;;4.60;1.27;;;;;;;10.67;73.46;101594.69;5056133;28;20714;-34
2021/10/01 05:00:12;;;;;;;3.20;1.23;;;;;;;10.62;72.98;101583.69;5056286;28;20029;-34
2021/10/01 05:02:38;;;;;;;8.98;1.30;;;;;;;10.79;73.20;101601.13;5056210;28;20057;-34
2021/10/01 05:05:03;;;;;;;6.80;1.07;;;;;;;10.79;73.21;101601.13;5055768;28;20083;-34
2021/10/01 05:07:29;;;;;;;2.97;1.05;;;;;;;10.78;72.57;101604.84;5056101;28;20139;-35
2021/10/01 05:09:54;;;;;;;4.38;0.90;;;;;;;10.53;72.45;101564.16;5055618;28;20028;-35
2021/10/01 05:12:20;;;;;;;3.97;1.03;;;;;;;10.77;72.73;101598.63;5055914;28;20357;-35
2021/10/01 05:14:45;;;;;;;6.00;1.00;;;;;;;10.72;72.98;101582.19;5055528;28;20028;-35
2021/10/01 05:17:11;;;;;;;2.43;0.90;;;;;;;10.70;73.39;101578.06;5056171;28;20078;-35
2021/10/01 05:19:36;;;;;;;4.40;0.85;;;;;;;10.72;72.04;101584.91;5055785;28;20427;-35
2021/10/01 05:22:02;;;;;;;3.50;1.10;;;;;;;10.80;72.89;101583.84;5055854;28;20045;-35
2021/10/01 05:24:27;;;;;;;7.38;1.10;;;;;;;10.71;72.91;101571.59;5054251;28;20049;-34
2021/10/01 05:26:52;;;;;;;5.30;1.60;;;;;;;10.76;72.22;101571.78;5055728;28;20041;-34
2021/10/01 05:29:18;;;;;;;6.70;1.30;;;;;;;10.83;72.46;101586.09;5055130;28;20017;-34
2021/10/01 05:31:43;;;;;;;7.70;1.33;;;;;;;10.82;72.18;101577.16;5055768;28;20056;-35
2021/10/01 05:34:09;;;;;;;4.32;1.52;;;;;;;10.82;72.37;101592.56;5055587;28;20107;-34
2021/10/01 05:36:34;;;;;;;7.70;1.07;;;;;;;10.75;71.95;101586.34;5055113;28;20025;-34
2021/10/01 05:39:00;;;;;;;3.83;0.97;;;;;;;10.82;72.76;101590.69;5055192;28;20036;-35
2021/10/01 05:41:27;;;;;;;3.38;1.00;;;;;;;10.83;72.57;101595.06;5055224;28;20029;-35
2021/10/01 05:43:52;;;;;;;3.75;1.17;;;;;;;10.75;72.64;101594.47;5054699;28;20357;-35
2021/10/01 05:46:18;;;;;;;3.63;0.90;;;;;;;10.79;72.37;101601.13;5055048;28;20111;-35
2021/10/01 05:48:49;;;;;;;5.65;1.10;;;;;;;10.58;72.30;101564.34;5054993;28;20108;-35
2021/10/01 05:51:15;;;;;;;4.47;1.00;;;;;;;10.79;72.22;101595.72;5055548;28;20020;-35
2021/10/01 05:56:10;;;;;;;5.97;1.15;;;;;;;10.74;73.51;101590.94;5054953;28;20033;-34
2021/10/01 05:58:36;;;;;;;7.07;1.58;;;;;;;10.78;73.09;101602.16;5053331;28;20076;-35
2021/10/01 06:01:02;;;;;;;;;;;;;;;10.81;72.80;101599.84;5055370;28;20094;-35
2021/10/01 06:03:28;;;;;;;3.97;1.10;;;;;;;10.80;72.38;101600.91;5054767;28;19970;-35
2021/10/01 06:05:53;;;;;;;3.23;1.00;;;;;;;10.81;72.91;101596.31;5054674;28;20029;-35
2021/10/01 06:08:19;;;;;;;5.28;1.40;;;;;;;10.82;72.95;101603.38;5054154;28;20032;-34
2021/10/01 06:10:44;;;;;;;3.50;1.00;;;;;;;10.79;72.95;101598.41;5054434;28;20070;-35
2021/10/01 06:13:09;;;;;;;6.47;1.10;;;;;;;10.83;72.66;101603.19;5055216;28;20076;-34
2021/10/01 06:15:35;;;;;;;4.47;0.80;;;;;;;10.68;72.71;101588.25;5054683;28;20075;-35
2021/10/01 06:18:00;;;;;;;4.78;1.20;;;;;;;10.87;72.67;101611.69;5054750;28;20025;-35
2021/10/01 06:20:26;;;;;;;6.70;1.30;;;;;;;10.90;72.70;101605.03;5054457;28;20449;-35
2021/10/01 06:22:51;;;;;;;4.47;1.17;;;;;;;10.92;72.80;101598.34;5054579;28;20037;-35
2021/10/01 06:25:17;;;;;;;3.90;1.15;;;;;;;10.93;72.97;101599.16;5054771;28;20372;-35
2021/10/01 06:27:42;;;;;;;4.45;1.08;;;;;;;10.99;72.16;101601.88;5054867;28;20498;-35
2021/10/01 06:30:09;;;;;;;7.53;1.30;;;;;;;11.00;72.18;101608.09;5054286;28;20368;-35
2021/10/01 06:32:38;;;;;;;3.72;1.10;;;;;;;10.98;72.16;101597.50;5054595;28;20111;-34
2021/10/01 06:35:05;;;;;;;9.73;1.35;;;;;;;11.04;72.75;101612.88;5054527;28;20063;-35
2021/10/01 06:37:30;;;;;;;3.58;1.30;;;;;;;10.98;72.19;101586.69;5054487;28;20510;-35
2021/10/01 06:39:56;;;;;;;7.57;1.17;;;;;;;11.07;72.77;101601.59;5054133;28;20045;-35
2021/10/01 06:42:22;;;;;;;6.27;1.30;;;;;;;11.09;72.34;101594.13;5054389;28;20045;-35
2021/10/01 06:44:50;;;;;;;5.07;1.40;;;;;;;11.13;72.63;101599.09;5053580;28;20098;-35
2021/10/01 06:47:21;;;;;;;3.38;1.30;;;;;;;11.11;72.45;101593.88;5054447;28;20456;-34
2021/10/01 07:36:45;;;;;;;5.38;1.40;;;;;;;11.73;71.97;101567.03;5011976;28;20041;-35
2021/10/01 08:19:43;;;;;;;9.23;1.67;;;;;;;12.94;69.81;101569.13;5053219;28;20484;-35
2021/10/01 08:22:09;;;;;;;5.50;1.40;;;;;;;13.05;68.91;101567.50;5052702;28;20025;-35
2021/10/01 08:24:34;;;;;;;4.38;1.15;;;;;;;13.20;69.60;101564.38;5052964;28;20021;-35
2021/10/01 08:27:00;;;;;;;7.00;1.30;;;;;;;13.29;69.93;101546.72;5053380;28;20032;-35
2021/10/01 08:29:26;;;;;;;5.50;1.35;;;;;;;13.54;68.60;101569.09;5052781;28;20036;-35
2021/10/01 08:31:59;;;;;;;6.90;1.52;;;;;;;13.60;68.72;101562.72;5055290;28;20381;-35
2021/10/01 08:34:25;;;;;;;6.00;1.30;;;;;;;13.64;67.58;101552.22;5056954;28;20032;-35
2021/10/01 08:36:50;;;;;;;7.38;1.23;;;;;;;13.69;67.34;101557.78;5056958;28;20032;-35
2021/10/01 08:39:15;;;;;;;8.87;1.83;;;;;;;13.73;67.22;101561.69;5056604;28;20035;-35
2021/10/01 08:41:41;;;;;;;6.00;1.47;;;;;;;13.75;67.99;101559.56;5056334;28;20024;-35
2021/10/01 08:44:07;;;;;;;6.80;1.57;;;;;;;13.75;67.56;101561.44;5056171;28;20279;-35
2021/10/01 08:46:33;;;;;;;6.10;1.85;;;;;;;13.75;68.46;101558.75;5056448;28;20251;-35
2021/10/01 08:49:00;;;;;;;7.90;1.45;;;;;;;13.77;67.60;101564.78;5056351;28;20025;-35
2021/10/01 08:51:26;;;;;;;8.32;1.52;;;;;;;13.52;67.50;101525.06;5056786;28;20416;-35
2021/10/01 08:53:55;;;;;;;3.38;1.10;;;;;;;13.63;68.07;101553.28;5056258;28;20025;-35
2021/10/01 08:56:23;;;;;;;5.22;1.20;;;;;;;13.58;68.29;101548.56;5056010;28;20496;-35
2021/10/01 08:58:48;;;;;;;5.57;1.35;;;;;;;13.50;69.16;101551.59;5056135;28;20029;-35
2021/10/01 09:01:14;;;;;;;6.57;1.20;;;;;;;13.35;71.07;101537.63;5056422;28;20031;-35
2021/10/01 09:03:41;;;;;;;7.10;1.33;;;;;;;13.28;74.09;101531.50;5056156;28;20259;-35
2021/10/01 09:06:07;;;;;;;11.10;1.58;;;;;;;13.24;74.46;101549.31;5056023;28;20029;-35
2021/10/01 09:08:34;;;;;;;5.47;1.95;;;;;;;13.22;76.44;101554.94;5055687;28;20108;-35
2021/10/01 09:11:04;;;;;;;4.60;1.17;;;;;;;13.17;77.96;101552.06;5056153;28;20067;-35
2021/10/01 09:13:31;;;;;;;5.40;1.83;;;;;;;13.13;75.62;101535.44;5055882;28;20461;-35
2021/10/01 09:16:00;;;;;;;4.55;1.23;;;;;;;13.31;75.97;101544.59;5055676;28;20052;-35
2021/10/01 09:18:29;;;;;;;6.95;1.80;;;;;;;13.51;75.02;101541.56;5055698;28;20028;-35
2021/10/01 09:21:16;;;;;;;6.50;1.30;;;;;;;13.71;75.57;101539.34;5055904;28;20025;-35
2021/10/01 09:23:52;;;;;;;6.77;1.73;;;;;;;13.81;75.18;101538.75;5055715;28;20468;-35
2021/10/01 09:26:20;;;;;;;4.28;1.35;;;;;;;13.89;74.55;101535.69;5055586;28;20280;-35
2021/10/01 09:28:57;;;;;;;5.38;1.65;;;;;;;13.94;73.46;101535.00;5055498;28;20045;-35
2021/10/01 09:31:30;;;;;;;3.47;1.23;;;;;;;13.98;73.58;101520.69;5054639;28;20140;-35
2021/10/01 09:33:55;;;;;;;4.28;1.20;;;;;;;14.03;73.60;101528.13;5054596;28;20048;-35
2021/10/01 09:36:21;;;;;;;9.32;1.67;;;;;;;13.98;73.78;101509.81;5056244;28;20029;-35
2021/10/01 09:38:47;;;;;;;5.45;1.50;;;;;;;14.15;73.56;101513.47;5055425;28;20021;-35
2021/10/01 09:41:15;;;;;;;6.13;1.70;;;;;;;14.15;71.66;101507.19;5055518;28;20032;-35
2021/10/01 09:43:41;;;;;;;4.97;1.25;;;;;;;14.26;70.47;101508.25;5054230;28;20031;-35
2021/10/01 09:46:09;;;;;;;7.15;1.35;;;;;;;14.30;70.14;101512.97;5070692;28;20453;-35
2021/10/01 09:48:36;;;;;;;6.22;1.15;;;;;;;14.36;70.15;101500.31;5055113;28;20032;-35
2021/10/01 09:51:14;;;;;;;5.93;1.30;;;;;;;14.34;68.90;101489.66;5055603;28;20342;-35
2021/10/01 09:53:49;;;;;;;5.75;1.55;;;;;;;14.48;70.44;101497.56;5055119;28;20368;-35
2021/10/01 09:56:31;;;;;;;5.30;1.30;;;;;;;14.54;69.57;101489.28;5055359;28;20021;-35
2021/10/01 09:59:09;;;;;;;5.63;1.48;;;;;;;14.61;68.94;101484.53;5055546;28;20086;-35
2021/10/01 10:01:55;;;;;;;5.70;1.13;;;;;;;14.73;67.85;101486.38;5055297;28;20021;-35
2021/10/01 10:04:21;;;;;;;4.40;1.30;;;;;;;14.78;67.88;101489.19;5055584;28;20055;-35
2021/10/01 10:06:46;;;;;;;5.97;1.30;;;;;;;14.88;68.18;101486.66;5054658;28;20020;-35
2021/10/01 10:09:13;;;;;;;3.33;1.10;;;;;;;14.91;66.54;101483.44;5054722;28;20299;-35
2021/10/01 10:11:42;;;;;;;5.35;1.33;;;;;;;14.85;66.76;101482.53;5055221;28;20334;-35
2021/10/01 10:14:10;;;;;;;7.90;1.30;;;;;;;14.88;67.74;101481.19;5054323;28;20103;-35
2021/10/01 10:16:36;;;;;;;6.10;1.98;;;;;;;14.92;67.05;101487.81;5054792;28;20111;-35
2021/10/01 10:19:04;;;;;;;4.07;1.17;;;;;;;14.88;65.81;101486.66;5054626;28;20128;-35
2021/10/01 10:21:31;;;;;;;5.55;2.10;;;;;;;14.87;66.11;101485.00;5054298;28;20462;-35
2021/10/01 10:23:56;;;;;;;5.50;1.08;;;;;;;14.86;65.52;101477.91;5054716;28;20128;-35
2021/10/01 10:26:24;;;;;;;6.68;1.23;;;;;;;14.89;66.52;101480.16;5054687;28;20116;-35
2021/10/01 10:28:52;;;;;;;5.30;1.48;;;;;;;14.96;66.86;101475.38;5054059;28;20025;-35
2021/10/01 10:31:19;;;;;;;5.95;1.42;;;;;;;15.01;65.76;101469.19;5053660;28;20390;-35
2021/10/01 10:33:51;;;;;;;3.00;1.17;;;;;;;15.05;65.37;101460.28;5054333;28;20402;-35
2021/10/01 10:36:32;;;;;;;5.93;1.40;;;;;;;15.14;65.94;101464.25;5054877;28;20056;-35
2021/10/01 10:39:09;;;;;;;5.55;1.42;;;;;;;15.13;65.64;101456.34;5054182;28;20071;-35
2021/10/01 10:41:36;;;;;;;6.95;1.30;;;;;;;15.13;65.43;101462.63;5054244;28;20013;-35
2021/10/01 10:44:01;;;;;;;4.60;1.10;;;;;;;15.07;65.05;101455.41;5053859;28;20020;-35
2021/10/01 10:46:36;;;;;;;4.55;1.50;;;;;;;15.19;65.79;101461.63;5054963;28;20075;-35
2021/10/01 10:49:26;;;;;;;3.33;1.15;;;;;;;15.28;65.44;101453.88;5054095;28;20365;-35
2021/10/01 10:51:57;;;;;;;7.82;1.63;;;;;;;15.36;65.11;101469.78;5054045;28;20024;-35
2021/10/01 10:54:27;;;;;;;4.80;1.20;;;;;;;15.45;64.41;101470.22;5053322;28;20035;-35
2021/10/01 10:57:25;;;;;;;7.40;1.20;;;;;;;15.48;65.80;101458.81;5053678;28;20029;-35
2021/10/01 11:00:02;;;;;;;7.25;1.35;;;;;;;15.44;66.41;101457.66;5054550;28;20170;-35
2021/10/01 11:02:33;;;;;;;4.10;1.13;;;;;;;15.42;66.90;101454.34;5053395;28;20031;-35
2021/10/01 11:05:22;;;;;;;2.60;0.88;;;;;;;15.43;66.93;101434.22;5053754;28;20021;-35
2021/10/01 11:07:51;;;;;;;5.10;1.52;;;;;;;15.39;67.84;101439.34;5053941;28;20025;-35
2021/10/01 11:10:41;;;;;;;4.25;1.10;;;;;;;15.37;67.85;101427.00;5053640;28;20357;-35
2021/10/01 11:13:18;;;;;;;7.53;1.48;;;;;;;15.33;67.43;101420.44;5054246;28;20071;-35
2021/10/01 11:16:11;;;;;;;5.80;1.38;;;;;;;15.33;68.04;101413.09;5053335;28;20052;-35
2021/10/01 11:18:46;;;;;;;5.68;1.17;;;;;;;15.30;67.17;101413.56;5053675;28;20410;-35
2021/10/01 11:21:26;;;;;;;8.02;1.40;;;;;;;15.24;67.01;101408.28;5054057;28;20025;-35
2021/10/01 11:24:13;;;;;;;5.32;1.27;;;;;;;15.20;66.17;101402.50;5053683;28;20049;-35
2021/10/01 11:26:39;;;;;;;2.33;1.03;;;;;;;15.30;63.85;101423.66;5054048;28;20051;-35
2021/10/01 11:29:23;;;;;;;4.45;1.00;;;;;;;15.24;65.31;101400.13;5053703;28;20112;-35
2021/10/01 11:31:51;;;;;;;5.35;1.52;;;;;;;15.40;63.99;101424.63;5053299;28;20025;-35
2021/10/01 11:34:17;;;;;;;6.22;1.27;;;;;;;15.51;63.90;101422.88;5053735;28;20072;-35
2021/10/01 11:36:42;;;;;;;8.95;1.30;;;;;;;15.60;62.99;101413.19;5053251;28;20052;-35
2021/10/01 11:39:15;;;;;;;8.40;1.40;;;;;;;15.74;63.46;101413.69;5053303;28;20029;-35
2021/10/01 11:41:47;;;;;;;7.53;1.33;;;;;;;15.78;64.43;101406.69;5053750;28;20029;-35
2021/10/01 11:44:13;;;;;;;4.15;1.17;;;;;;;15.97;62.49;101409.94;5053065;28;20028;-35
2021/10/01 11:46:45;;;;;;;5.00;1.30;;;;;;;16.07;62.03;101410.06;5053102;28;20024;-36
2021/10/01 11:49:20;;;;;;;6.80;1.50;;;;;;;16.15;61.84;101409.63;5052854;28;20420;-36
2021/10/01 11:52:04;;;;;;;4.38;1.02;;;;;;;16.14;62.19;101397.03;5053926;28;20021;-36
2021/10/01 11:54:30;;;;;;;6.18;1.15;;;;;;;16.23;60.42;101398.22;5052996;28;20108;-36
2021/10/01 11:57:00;;;;;;;5.38;1.50;;;;;;;16.29;59.05;101390.09;5053985;28;20028;-36
2021/10/01 11:59:46;;;;;;;7.25;1.27;;;;;;;16.31;60.50;101398.88;5053316;28;20029;-36
2021/10/01 12:02:12;;;;;;;3.97;1.25;;;;;;;16.32;61.26;101393.16;5053564;28;20028;-36
2021/10/01 12:04:37;;;;;;;5.75;1.50;;;;;;;16.17;61.22;101369.25;5052867;28;20029;-36
2021/10/01 12:07:05;;;;;;;6.67;1.20;;;;;;;16.28;59.70;101385.72;5055738;28;20331;-36
2021/10/01 12:09:30;;;;;;;4.88;1.38;;;;;;;16.22;59.25;101374.75;5057090;28;20109;-36
2021/10/01 12:12:04;;;;;;;10.77;2.08;;;;;;;16.28;58.99;101381.09;5057390;28;20512;-36
2021/10/01 12:14:30;;;;;;;5.85;1.50;;;;;;;16.23;58.83;101368.22;5057484;28;20029;-36
2021/10/01 12:16:58;;;;;;;5.50;1.20;;;;;;;16.26;58.64;101382.44;5056704;28;20425;-36
2021/10/01 12:19:25;;;;;;;6.45;1.27;;;;;;;16.34;59.11;101384.69;5056549;28;20021;-36
2021/10/01 12:22:09;;;;;;;5.72;1.48;;;;;;;16.39;59.81;101373.84;5057367;28;20029;-36
2021/10/01 12:24:48;;;;;;;8.25;1.48;;;;;;;16.35;60.52;101357.19;5055388;28;20116;-36
2021/10/01 12:27:14;;;;;;;14.32;2.15;;;;;;;16.40;60.85;101359.13;5057391;28;20025;-36
2021/10/01 12:29:49;;;;;;;9.30;1.50;;;;;;;16.44;59.77;101371.97;5056780;28;20025;-36
2021/10/01 12:32:16;;;;;;;6.35;1.10;;;;;;;16.43;59.86;101378.53;5057457;28;20039;-36
2021/10/01 12:34:49;;;;;;;6.53;1.23;;;;;;;16.47;59.22;101363.28;5056888;28;20107;-36
2021/10/01 12:37:18;;;;;;;5.40;1.35;;;;;;;16.25;60.02;101321.59;5057084;28;20036;-33
2021/10/01 12:39:48;;;;;;;4.57;1.65;;;;;;;16.45;60.00;101351.00;5056299;28;20028;-33
2021/10/01 12:42:22;;;;;;;6.10;1.50;;;;;;;16.52;60.12;101362.53;5072126;28;20025;-33
2021/10/01 12:45:00;;;;;;;5.32;1.60;;;;;;;16.45;59.05;101353.72;5056826;28;20079;-33
2021/10/01 12:47:26;;;;;;;6.82;1.17;;;;;;;16.51;58.44;101366.34;5056629;28;20499;-34
2021/10/01 12:50:02;;;;;;;4.00;1.00;;;;;;;16.50;58.28;101372.88;5056152;28;20033;-33
2021/10/01 12:52:29;;;;;;;4.13;1.27;;;;;;;16.46;58.72;101371.75;5056107;28;20461;-33
2021/10/01 12:55:21;;;;;;;6.75;1.55;;;;;;;16.44;58.86;101363.78;5056347;28;20024;-33
2021/10/01 12:57:49;;;;;;;6.05;1.30;;;;;;;16.40;58.62;101362.69;5055683;28;20515;-33
2021/10/01 13:00:23;;;;;;;5.85;1.30;;;;;;;16.42;58.55;101356.97;5056052;28;20027;-33
2021/10/01 13:03:01;;;;;;;6.65;1.38;;;;;;;16.29;60.25;101332.81;5056211;28;20408;-34
2021/10/01 13:05:36;;;;;;;7.22;1.20;;;;;;;16.42;58.73;101354.22;5055668;28;20021;-34
2021/10/01 13:08:02;;;;;;;6.43;1.40;;;;;;;16.44;57.98;101365.69;5056145;28;20043;-34